createdAt,value
2023-02-08T00:01:10.402Z,32.80
2023-02-08T00:03:37.936Z,31.60
2023-02-08T00:06:06.705Z,30.02
2023-02-08T00:08:34.900Z,29.70
2023-02-08T00:11:01.814Z,30.27
2023-02-08T00:13:28.850Z,28.00
2023-02-08T00:15:56.283Z,29.88
2023-02-08T00:18:23.678Z,30.95
2023-02-08T00:20:51.394Z,30.65
2023-02-08T00:23:18.626Z,30.60
2023-02-08T00:25:45.553Z,29.73
2023-02-08T00:28:15.914Z,28.33
2023-02-08T00:30:43.751Z,30.30
2023-02-08T00:33:11.961Z,30.33
2023-02-08T00:35:38.976Z,29.17
2023-02-08T00:38:05.855Z,29.85
2023-02-08T00:40:32.754Z,30.98
2023-02-08T00:42:59.709Z,30.40
2023-02-08T00:45:26.606Z,31.17
2023-02-08T00:47:53.489Z,28.85
2023-02-08T00:50:21.442Z,30.73
2023-02-08T00:52:48.329Z,29.77
2023-02-08T00:55:15.390Z,32.40
2023-02-08T00:57:42.348Z,30.90
2023-02-08T01:00:11.629Z,30.88
2023-02-08T01:02:39.470Z,30.67
2023-02-08T01:05:07.100Z,30.90
2023-02-08T01:07:37.641Z,29.02
2023-02-08T01:10:07.150Z,29.17
2023-02-08T01:12:34.938Z,31.58
2023-02-08T01:15:01.846Z,32.33
2023-02-08T01:17:28.732Z,31.48
2023-02-08T01:19:55.621Z,31.27
2023-02-08T01:22:22.657Z,31.20
2023-02-08T01:24:49.529Z,30.38
2023-02-08T01:27:16.370Z,30.85
2023-02-08T01:29:43.335Z,29.02
2023-02-08T01:32:10.268Z,30.75
2023-02-08T01:34:37.210Z,29.50
2023-02-08T01:37:04.655Z,31.42
2023-02-08T01:39:33.540Z,30.08
2023-02-08T01:42:00.551Z,30.02
2023-02-08T01:45:01.573Z,29.98
2023-02-08T01:47:29.718Z,30.73
2023-02-08T01:49:56.884Z,29.80
2023-02-08T01:52:28.852Z,29.52
2023-02-08T01:55:09.475Z,30.48
2023-02-08T01:57:36.524Z,27.15
2023-02-08T02:00:13.860Z,29.50
2023-02-08T02:02:42.342Z,29.92
2023-02-08T02:05:10.124Z,29.52
2023-02-08T02:07:38.308Z,28.38
2023-02-08T02:10:26.617Z,30.73
2023-02-08T02:12:56.721Z,30.27
2023-02-08T02:15:23.975Z,29.38
2023-02-08T02:17:50.887Z,29.95
2023-02-08T02:21:04.365Z,28.27
2023-02-08T02:24:32.837Z,29.38
2023-02-08T02:30:26.230Z,27.60
2023-02-08T02:33:17.915Z,27.75
2023-02-08T02:36:09.565Z,28.35
2023-02-08T02:38:47.459Z,27.75
2023-02-08T02:41:49.776Z,28.60
2023-02-08T02:44:43.882Z,26.42
2023-02-08T02:47:33.520Z,27.33
2023-02-08T02:50:21.979Z,28.17
2023-02-08T02:53:14.401Z,27.10
2023-02-08T02:55:50.256Z,28.60
2023-02-08T02:58:22.982Z,27.25
2023-02-08T03:00:56.575Z,28.35
2023-02-08T03:03:32.162Z,27.92
2023-02-08T03:06:06.292Z,28.98
2023-02-08T03:08:52.293Z,26.85
2023-02-08T03:11:27.757Z,25.50
2023-02-08T03:14:09.671Z,26.90
2023-02-08T03:17:08.243Z,26.60
2023-02-08T03:19:47.895Z,26.60
2023-02-08T03:22:26.053Z,28.45
2023-02-08T03:25:14.838Z,27.17
2023-02-08T03:28:07.594Z,26.27
2023-02-08T03:30:51.900Z,26.08
2023-02-08T03:33:32.684Z,26.60
2023-02-08T03:36:20.355Z,25.75
2023-02-08T03:38:50.409Z,26.33
2023-02-08T03:41:25.583Z,27.48
2023-02-08T03:44:03.352Z,26.58
2023-02-08T03:46:38.397Z,28.15
2023-02-08T03:49:13.774Z,27.35
2023-02-08T03:51:43.862Z,26.88
2023-02-08T03:54:25.616Z,27.40
2023-02-08T03:57:08.109Z,28.58
2023-02-08T03:59:42.997Z,28.48
2023-02-08T04:02:20.096Z,26.15
2023-02-08T04:04:51.277Z,26.95
2023-02-08T04:07:19.951Z,25.00
2023-02-08T04:09:47.041Z,27.35
2023-02-08T04:12:14.316Z,26.38
2023-02-08T04:14:41.327Z,28.35
2023-02-08T04:17:08.565Z,25.42
2023-02-08T04:19:35.522Z,26.00
2023-02-08T04:22:02.474Z,26.38
2023-02-08T04:24:29.322Z,25.35
2023-02-08T04:26:56.332Z,26.13
2023-02-08T04:29:23.350Z,26.70
2023-02-08T04:31:50.274Z,26.08
2023-02-08T04:34:17.200Z,25.27
2023-02-08T04:36:44.118Z,25.17
2023-02-08T04:39:11.015Z,26.20
2023-02-08T04:41:37.947Z,25.75
2023-02-08T04:44:04.874Z,25.17
2023-02-08T04:46:31.831Z,25.80
2023-02-08T04:48:59.148Z,23.48
2023-02-08T04:51:26.130Z,26.52
2023-02-08T04:53:52.983Z,25.90
2023-02-08T04:56:20.017Z,25.67
2023-02-08T04:58:48.430Z,25.15
2023-02-08T05:01:16.373Z,25.00
2023-02-08T05:03:43.450Z,23.30
2023-02-08T05:06:10.483Z,24.52
2023-02-08T05:08:37.447Z,24.00
2023-02-08T05:11:04.614Z,23.95
2023-02-08T05:13:31.832Z,25.77
2023-02-08T05:15:59.044Z,24.48
2023-02-08T05:18:25.960Z,24.35
2023-02-08T05:21:01.292Z,24.85
2023-02-08T05:23:28.492Z,24.58
2023-02-08T05:25:55.440Z,25.83
2023-02-08T05:28:22.602Z,24.48
2023-02-08T05:30:49.826Z,24.33
2023-02-08T05:33:18.464Z,23.33
2023-02-08T05:35:46.038Z,24.23
2023-02-08T05:38:13.142Z,25.33
2023-02-08T05:40:40.523Z,25.05
2023-02-08T05:43:07.665Z,25.60
2023-02-08T05:45:34.572Z,25.63
2023-02-08T05:48:01.425Z,24.27
2023-02-08T05:50:28.359Z,24.88
2023-02-08T05:52:55.212Z,27.10
2023-02-08T05:55:22.124Z,26.95
2023-02-08T05:57:49.036Z,25.95
2023-02-08T06:00:16.552Z,25.90
2023-02-08T06:02:43.769Z,24.63
2023-02-08T06:05:10.727Z,23.33
2023-02-08T06:07:37.610Z,23.67
2023-02-08T06:10:05.565Z,25.00
2023-02-08T06:12:32.545Z,25.10
2023-02-08T06:14:59.677Z,26.45
2023-02-08T06:17:26.602Z,26.10
2023-02-08T06:19:53.562Z,26.20
2023-02-08T06:22:20.465Z,25.42
2023-02-08T06:24:48.892Z,25.77
2023-02-08T06:27:15.836Z,26.13
2023-02-08T06:29:42.646Z,24.05
2023-02-08T06:32:09.843Z,25.13
2023-02-08T06:34:36.924Z,25.50
2023-02-08T06:37:06.489Z,25.67
2023-02-08T06:39:33.617Z,26.42
2023-02-08T06:42:00.633Z,25.42
2023-02-08T06:44:27.454Z,25.48
2023-02-08T06:47:12.648Z,27.58
2023-02-08T06:49:39.901Z,27.52
2023-02-08T06:52:06.964Z,29.65
2023-02-08T06:54:33.870Z,28.50
2023-02-08T06:57:00.715Z,31.13
2023-02-08T06:59:27.654Z,29.48
2023-02-08T07:01:54.543Z,30.98
2023-02-08T07:04:22.998Z,31.90
2023-02-08T07:06:50.128Z,30.95
2023-02-08T07:09:17.828Z,31.10
2023-02-08T07:11:44.712Z,29.25
2023-02-08T07:14:15.843Z,29.40
2023-02-08T07:16:43.482Z,28.90
2023-02-08T07:19:10.345Z,29.70
2023-02-08T07:21:37.394Z,31.73
2023-02-08T07:24:04.323Z,33.10
2023-02-08T07:26:31.245Z,32.28
2023-02-08T07:28:58.863Z,34.13
2023-02-08T07:31:25.715Z,30.88
2023-02-08T07:33:52.648Z,32.38
2023-02-08T07:36:19.504Z,31.08
2023-02-08T07:38:46.374Z,33.90
2023-02-08T07:41:15.540Z,29.83
2023-02-08T07:43:43.131Z,29.90
2023-02-08T07:46:17.401Z,33.50
2023-02-08T07:48:45.000Z,31.58
2023-02-08T07:51:13.008Z,34.70
2023-02-08T07:53:40.143Z,33.13
2023-02-08T07:56:07.414Z,29.75
2023-02-08T07:58:34.539Z,32.80
2023-02-08T08:01:09.440Z,29.75
2023-02-08T08:03:36.698Z,30.95
2023-02-08T08:06:04.496Z,31.15
2023-02-08T08:08:31.436Z,31.33
2023-02-08T08:10:58.439Z,31.65
2023-02-08T08:13:25.323Z,30.63
2023-02-08T08:15:52.327Z,31.23
2023-02-08T08:18:19.348Z,30.75
2023-02-08T08:20:46.332Z,31.50
2023-02-08T08:23:13.183Z,29.20
2023-02-08T08:25:40.356Z,29.73
2023-02-08T08:28:07.233Z,28.75
2023-02-08T08:30:34.345Z,31.10
2023-02-08T08:33:01.549Z,31.17
2023-02-08T08:35:35.005Z,28.90
2023-02-08T08:38:10.037Z,28.60
2023-02-08T08:40:37.000Z,27.42
2023-02-08T08:43:03.942Z,27.42
2023-02-08T08:45:30.921Z,27.80
2023-02-08T08:47:58.414Z,25.20
2023-02-08T08:50:25.250Z,27.70
2023-02-08T08:52:52.111Z,27.25
2023-02-08T08:55:28.722Z,25.13
2023-02-08T08:58:02.380Z,25.48
2023-02-08T09:00:29.720Z,24.88
2023-02-08T09:02:56.753Z,25.40
2023-02-08T09:05:24.768Z,23.73
2023-02-08T09:08:04.014Z,23.55
2023-02-08T09:10:32.158Z,26.15
2023-02-08T09:13:00.519Z,25.38
2023-02-08T09:15:27.555Z,22.75
2023-02-08T09:17:54.669Z,22.33
2023-02-08T09:20:21.870Z,23.85
2023-02-08T09:22:48.815Z,25.67
2023-02-08T09:25:16.153Z,24.27
2023-02-08T09:27:43.421Z,23.08
2023-02-08T09:30:11.334Z,21.55
2023-02-08T09:32:39.901Z,23.15
2023-02-08T09:35:08.469Z,21.90
2023-02-08T09:37:35.711Z,21.92
2023-02-08T09:40:02.732Z,20.23
2023-02-08T09:42:38.874Z,21.40
2023-02-08T09:45:36.765Z,22.58
2023-02-08T09:48:17.367Z,19.70
2023-02-08T09:50:53.385Z,20.98
2023-02-08T09:53:40.357Z,20.23
2023-02-08T09:56:15.464Z,18.85
2023-02-08T09:58:53.622Z,20.58
2023-02-08T10:01:38.967Z,20.33
2023-02-08T10:04:23.871Z,19.30
2023-02-08T10:06:51.026Z,20.20
2023-02-08T10:09:24.982Z,21.33
2023-02-08T10:12:22.776Z,19.90
2023-02-08T10:15:25.588Z,19.92
2023-02-08T10:18:40.388Z,20.52
2023-02-08T10:22:04.052Z,20.65
2023-02-08T10:24:33.646Z,21.25
2023-02-08T10:27:09.240Z,21.00
2023-02-08T10:29:57.229Z,20.90
2023-02-08T10:32:24.158Z,20.63
2023-02-08T10:35:06.078Z,20.20
2023-02-08T10:37:38.707Z,20.00
2023-02-08T10:40:32.783Z,22.10
2023-02-08T10:43:14.979Z,19.17
2023-02-08T10:46:03.370Z,20.90
2023-02-08T10:49:05.648Z,19.83
2023-02-08T10:51:32.570Z,20.23
2023-02-08T10:53:59.430Z,20.33
2023-02-08T10:56:50.950Z,20.48
2023-02-08T10:59:28.877Z,19.60
2023-02-08T11:01:58.339Z,18.90
2023-02-08T11:04:25.459Z,19.92
2023-02-08T11:06:54.606Z,19.77
2023-02-08T11:09:30.869Z,19.50
2023-02-08T11:12:02.576Z,18.65
2023-02-08T11:14:47.652Z,17.50
2023-02-08T11:17:32.858Z,18.70
2023-02-08T11:20:00.347Z,18.27
2023-02-08T11:22:31.313Z,19.67
2023-02-08T11:25:03.372Z,18.25
2023-02-08T11:27:38.200Z,17.42
2023-02-08T11:30:23.342Z,18.92
2023-02-08T11:33:18.471Z,19.00
2023-02-08T11:36:03.083Z,17.10
2023-02-08T11:38:33.984Z,17.88
2023-02-08T11:41:04.964Z,17.67
2023-02-08T11:43:36.151Z,18.50
2023-02-08T11:46:05.462Z,17.60
2023-02-08T11:48:43.523Z,16.83
2023-02-08T11:51:24.020Z,18.15
2023-02-08T11:53:50.975Z,17.15
2023-02-08T11:56:31.151Z,17.30
2023-02-08T11:59:00.846Z,17.52
2023-02-08T12:01:41.161Z,16.45
2023-02-08T12:04:13.925Z,17.25
2023-02-08T12:07:25.548Z,17.13
2023-02-08T12:10:02.102Z,15.90
2023-02-08T12:12:40.637Z,15.88
2023-02-08T12:15:28.858Z,15.55
2023-02-08T12:18:32.243Z,16.23
2023-02-08T12:21:17.949Z,15.43
2023-02-08T12:27:19.841Z,14.65
2023-02-08T12:30:15.421Z,15.93
2023-02-08T12:33:50.525Z,17.05
2023-02-08T12:36:41.131Z,16.65
2023-02-08T12:39:58.085Z,15.73
2023-02-08T12:45:40.937Z,15.32
2023-02-08T12:48:48.439Z,15.23
2023-02-08T12:51:42.616Z,15.27
2023-02-08T12:54:37.153Z,14.82
2023-02-08T12:57:06.650Z,15.07
2023-02-08T12:59:40.106Z,13.05
2023-02-08T13:02:25.606Z,14.18
2023-02-08T13:04:59.616Z,12.82
2023-02-08T13:07:50.451Z,12.50
2023-02-08T13:10:38.253Z,12.48
2023-02-08T13:13:29.256Z,12.45
2023-02-08T13:16:03.635Z,12.35
2023-02-08T13:18:43.756Z,13.77
2023-02-08T13:21:22.640Z,12.57
2023-02-08T13:23:53.026Z,13.60
2023-02-08T13:26:33.442Z,13.00
2023-02-08T13:29:03.474Z,13.82
2023-02-08T13:31:47.105Z,14.00
2023-02-08T13:34:32.908Z,14.13
2023-02-08T13:37:08.854Z,13.25
2023-02-08T13:39:44.542Z,12.98
2023-02-08T13:42:31.066Z,15.20
2023-02-08T13:45:00.203Z,14.73
2023-02-08T13:47:49.011Z,14.10
2023-02-08T13:50:37.204Z,13.27
2023-02-08T13:53:05.868Z,14.18
2023-02-08T13:55:36.076Z,14.05
2023-02-08T13:58:48.807Z,14.85
2023-02-08T14:01:27.223Z,14.57
2023-02-08T14:04:12.276Z,15.07
2023-02-08T14:06:41.869Z,15.48
2023-02-08T14:09:28.700Z,14.57
2023-02-08T14:12:12.041Z,15.20
2023-02-08T14:14:39.776Z,12.93
2023-02-08T14:17:29.430Z,13.75
2023-02-08T14:20:02.472Z,11.90
2023-02-08T14:22:51.368Z,12.70
2023-02-08T14:25:24.427Z,14.07
2023-02-08T14:28:01.614Z,13.68
2023-02-08T14:30:36.556Z,13.60
2023-02-08T14:33:07.395Z,13.20
2023-02-08T14:35:39.434Z,12.50
2023-02-08T14:38:24.643Z,12.95
2023-02-08T14:40:57.299Z,12.18
2023-02-08T14:43:35.443Z,12.20
2023-02-08T14:46:38.394Z,13.13
2023-02-08T14:49:16.849Z,12.25
2023-02-08T14:51:56.156Z,12.68
2023-02-08T14:54:35.022Z,12.98
2023-02-08T14:57:11.739Z,12.70
2023-02-08T14:59:41.190Z,12.93
2023-02-08T15:02:31.213Z,12.45
2023-02-08T15:04:59.799Z,13.40
2023-02-08T15:07:50.050Z,13.27
2023-02-08T15:10:19.781Z,12.48
2023-02-08T15:13:00.625Z,13.70
2023-02-08T15:15:44.012Z,13.25
2023-02-08T15:18:23.865Z,12.70
2023-02-08T15:21:32.405Z,13.75
2023-02-08T15:24:07.735Z,13.50
2023-02-08T15:29:02.116Z,13.15
2023-02-08T15:31:33.793Z,13.13
2023-02-08T15:34:02.376Z,13.68
2023-02-08T15:36:36.157Z,13.63
2023-02-08T15:39:15.037Z,13.68
2023-02-08T15:41:41.958Z,13.18
2023-02-08T15:44:25.009Z,12.48
2023-02-08T15:49:44.086Z,13.70
2023-02-08T15:52:19.693Z,12.98
2023-02-08T15:54:48.102Z,13.87
2023-02-08T15:57:44.040Z,14.07
2023-02-08T16:00:16.378Z,13.43
2023-02-08T16:02:44.183Z,13.45
2023-02-08T16:05:29.715Z,13.13
2023-02-08T16:07:57.656Z,12.90
2023-02-08T16:10:48.683Z,14.40
2023-02-08T16:13:23.642Z,13.52
2023-02-08T16:16:15.906Z,15.90
2023-02-08T16:18:50.023Z,13.85
2023-02-08T16:21:35.215Z,15.10
2023-02-08T16:24:10.907Z,14.13
2023-02-08T16:26:49.397Z,15.48
2023-02-08T16:29:30.335Z,14.82
2023-02-08T16:32:13.352Z,14.20
2023-02-08T16:34:40.745Z,14.55
2023-02-08T16:37:31.084Z,15.60
2023-02-08T16:40:36.457Z,18.13
2023-02-08T16:43:26.109Z,17.25
2023-02-08T16:46:11.340Z,15.55
2023-02-08T16:48:43.864Z,14.10
2023-02-08T16:51:22.989Z,13.68
2023-02-08T16:53:53.790Z,14.25
2023-02-08T16:56:21.583Z,13.20
2023-02-08T16:58:48.467Z,12.77
2023-02-08T17:01:15.585Z,14.25
2023-02-08T17:03:42.822Z,12.98
2023-02-08T17:06:32.169Z,13.43
2023-02-08T17:09:01.764Z,14.10
2023-02-08T17:11:30.259Z,13.13
2023-02-08T17:13:58.511Z,13.63
2023-02-08T17:16:29.754Z,14.18
2023-02-08T17:18:58.597Z,14.05
2023-02-08T17:21:27.240Z,13.68
2023-02-08T17:23:54.146Z,14.73
2023-02-08T17:26:40.651Z,13.55
2023-02-08T17:29:08.224Z,12.63
2023-02-08T17:31:35.758Z,12.43
2023-02-08T17:34:05.484Z,12.10
2023-02-08T17:36:36.443Z,13.95
2023-02-08T17:39:05.529Z,14.38
2023-02-08T17:41:32.751Z,14.85
2023-02-08T17:43:59.782Z,14.43
2023-02-08T17:46:32.465Z,14.15
2023-02-08T17:49:01.560Z,14.60
2023-02-08T17:51:29.152Z,13.95
2023-02-08T17:53:56.256Z,14.20
2023-02-08T17:56:27.659Z,15.38
2023-02-08T17:58:55.946Z,14.00
2023-02-08T18:01:26.827Z,14.27
2023-02-08T18:03:54.558Z,14.23
2023-02-08T18:06:23.877Z,14.90
2023-02-08T18:08:53.347Z,15.07
2023-02-08T18:11:21.365Z,14.05
2023-02-08T18:13:50.611Z,14.60
2023-02-08T18:16:28.112Z,16.33
2023-02-08T18:18:57.588Z,15.77
2023-02-08T18:21:25.898Z,14.77
2023-02-08T18:23:53.275Z,13.85
2023-02-08T18:26:23.063Z,14.43
2023-02-08T18:28:52.076Z,16.15
2023-02-08T18:31:20.527Z,15.38
2023-02-08T18:33:50.444Z,15.93
2023-02-08T18:36:19.332Z,15.32
2023-02-08T18:38:49.010Z,14.93
2023-02-08T18:41:24.562Z,16.00
2023-02-08T18:43:53.480Z,15.13
2023-02-08T18:46:23.157Z,15.75
2023-02-08T18:48:55.771Z,15.07
2023-02-08T18:51:25.290Z,15.75
2023-02-08T18:53:55.078Z,16.17
2023-02-08T18:56:26.083Z,15.10
2023-02-08T18:58:55.562Z,15.13
2023-02-08T19:01:24.818Z,15.00
2023-02-08T19:03:53.171Z,14.02
2023-02-08T19:06:24.677Z,13.70
2023-02-08T19:08:55.546Z,13.75
2023-02-08T19:11:30.684Z,15.13
2023-02-08T19:14:01.820Z,15.20
2023-02-08T19:16:34.171Z,15.48
2023-02-08T19:19:02.854Z,16.75
2023-02-08T19:21:32.194Z,15.52
2023-02-08T19:24:02.219Z,15.90
2023-02-08T19:26:41.899Z,17.15
2023-02-08T19:29:14.945Z,16.40
2023-02-08T19:31:43.738Z,16.98
2023-02-08T19:34:12.475Z,15.25
2023-02-08T19:36:52.202Z,16.10
2023-02-08T19:39:24.087Z,17.67
2023-02-08T19:41:52.994Z,16.55
2023-02-08T19:44:21.265Z,17.25
2023-02-08T19:46:55.138Z,17.00
2023-02-08T19:49:25.829Z,17.10
2023-02-08T19:51:53.920Z,16.42
2023-02-08T19:54:21.975Z,15.90
2023-02-08T19:56:54.807Z,16.83
2023-02-08T19:59:29.373Z,15.18
2023-02-08T20:01:56.712Z,15.68
2023-02-08T20:04:24.613Z,13.60
2023-02-08T20:06:54.073Z,14.40
2023-02-08T20:09:22.106Z,13.07
2023-02-08T20:11:57.361Z,13.73
2023-02-08T20:14:29.223Z,14.82
2023-02-08T20:16:57.727Z,13.18
2023-02-08T20:19:25.341Z,13.00
2023-02-08T20:21:53.078Z,13.40
2023-02-08T20:24:20.908Z,12.80
2023-02-08T20:26:49.296Z,13.50
2023-02-08T20:29:16.981Z,12.68
2023-02-08T20:31:48.405Z,13.05
2023-02-08T20:34:18.624Z,12.60
2023-02-08T20:37:05.322Z,12.10
2023-02-08T20:39:34.108Z,13.15
2023-02-08T20:42:01.001Z,11.95
2023-02-08T20:44:31.502Z,12.57
2023-02-08T20:46:58.727Z,12.35
2023-02-08T20:49:26.801Z,13.15
2023-02-08T20:51:54.553Z,11.93
2023-02-08T20:54:24.512Z,12.52
2023-02-08T20:56:53.450Z,12.10
2023-02-08T20:59:21.004Z,11.60
2023-02-08T21:01:48.462Z,12.27
2023-02-08T21:04:17.004Z,11.70
2023-02-08T21:06:45.998Z,11.73
2023-02-08T21:09:16.074Z,12.40
2023-02-08T21:11:44.725Z,11.98
2023-02-08T21:14:18.445Z,10.48
2023-02-08T21:16:56.071Z,11.15
2023-02-08T21:19:23.747Z,11.60
2023-02-08T21:21:54.499Z,11.82
2023-02-08T21:24:23.781Z,10.27
2023-02-08T21:26:55.528Z,9.82
2023-02-08T21:29:23.885Z,11.32
2023-02-08T21:31:53.530Z,10.10
2023-02-08T21:34:21.141Z,10.02
2023-02-08T21:36:48.322Z,10.77
2023-02-08T21:39:15.320Z,10.15
2023-02-08T21:41:42.213Z,9.35
2023-02-08T21:44:11.216Z,9.80
2023-02-08T21:46:38.446Z,9.75
2023-02-08T21:49:24.284Z,9.07
2023-02-08T21:52:10.167Z,8.90
2023-02-08T21:54:43.975Z,8.00
2023-02-08T21:57:25.870Z,8.15
2023-02-08T21:59:57.548Z,8.40
2023-02-08T22:02:28.656Z,9.02
2023-02-08T22:05:17.686Z,10.55
2023-02-08T22:07:50.347Z,9.50
2023-02-08T22:10:21.996Z,8.35
2023-02-08T22:12:49.573Z,8.50
2023-02-08T22:15:19.470Z,7.85
2023-02-08T22:17:47.192Z,8.98
2023-02-08T22:20:15.322Z,9.00
2023-02-08T22:22:42.321Z,8.35
2023-02-08T22:25:09.620Z,8.85
2023-02-08T22:27:39.014Z,8.27
2023-02-08T22:30:08.328Z,9.80
2023-02-08T22:32:35.557Z,8.15
2023-02-08T22:35:02.435Z,7.95
2023-02-08T22:37:29.435Z,8.20
2023-02-08T22:39:56.308Z,8.60
2023-02-08T22:42:23.208Z,7.97
2023-02-08T22:44:50.075Z,7.85
2023-02-08T22:47:17.144Z,8.98
2023-02-08T22:49:44.037Z,7.88
2023-02-08T22:52:11.522Z,9.00
2023-02-08T22:54:38.839Z,8.85
2023-02-08T22:57:09.658Z,8.43
2023-02-08T22:59:40.208Z,9.05
2023-02-08T23:02:07.098Z,8.65
2023-02-08T23:04:34.492Z,8.73
2023-02-08T23:07:01.520Z,8.55
2023-02-08T23:09:28.478Z,8.98
2023-02-08T23:11:55.466Z,8.90
2023-02-08T23:14:22.368Z,7.97
2023-02-08T23:16:49.297Z,8.65
2023-02-08T23:19:18.124Z,8.90
2023-02-08T23:21:45.210Z,8.65
2023-02-08T23:24:12.591Z,8.70
2023-02-08T23:26:39.681Z,8.43
2023-02-08T23:29:06.644Z,8.43
2023-02-08T23:31:34.778Z,8.30
2023-02-08T23:34:01.784Z,8.43
2023-02-08T23:36:29.184Z,8.13
2023-02-08T23:38:56.071Z,8.95
2023-02-08T23:41:24.440Z,8.57
2023-02-08T23:43:53.040Z,9.23
2023-02-08T23:46:24.840Z,8.65
2023-02-08T23:48:52.888Z,9.23
2023-02-08T23:51:22.773Z,9.30
2023-02-08T23:53:51.775Z,8.70
2023-02-08T23:56:31.890Z,8.77
2023-02-08T23:58:59.882Z,9.27
